createdAt,value
2023-03-07T00:01:30.097Z,78.92
2023-03-07T00:03:57.209Z,78.80
2023-03-07T00:06:24.141Z,78.81
2023-03-07T00:08:51.606Z,78.84
2023-03-07T00:11:18.691Z,78.98
2023-03-07T00:13:45.149Z,79.06
2023-03-07T00:16:13.291Z,79.07
2023-03-07T00:18:39.975Z,79.17
2023-03-07T00:21:07.861Z,79.35
2023-03-07T00:23:35.591Z,79.45
2023-03-07T00:26:06.513Z,79.52
2023-03-07T00:28:33.018Z,79.66
2023-03-07T00:31:00.932Z,79.66
2023-03-07T00:33:27.490Z,79.63
2023-03-07T00:35:55.203Z,79.59
2023-03-07T00:38:21.823Z,79.68
2023-03-07T00:40:55.338Z,79.69
2023-03-07T00:43:21.949Z,79.62
2023-03-07T00:45:48.757Z,79.55
2023-03-07T00:48:15.290Z,79.57
2023-03-07T00:50:41.955Z,79.56
2023-03-07T00:53:08.644Z,79.48
2023-03-07T00:55:35.108Z,79.39
2023-03-07T00:58:01.804Z,79.42
2023-03-07T01:00:28.946Z,79.36
2023-03-07T01:02:57.295Z,79.37
2023-03-07T01:05:27.606Z,79.70
2023-03-07T01:07:59.047Z,79.71
2023-03-07T01:10:25.504Z,79.86
2023-03-07T01:12:55.348Z,79.81
2023-03-07T01:15:22.281Z,79.50
2023-03-07T01:17:48.743Z,79.62
2023-03-07T01:20:15.445Z,79.81
2023-03-07T01:22:44.228Z,80.15
2023-03-07T01:25:13.130Z,80.26
2023-03-07T01:27:42.525Z,80.01
2023-03-07T01:30:09.346Z,79.85
2023-03-07T01:32:37.853Z,79.97
2023-03-07T01:35:08.127Z,80.15
2023-03-07T01:37:34.896Z,80.14
2023-03-07T01:40:02.222Z,80.08
2023-03-07T01:42:32.034Z,80.10
2023-03-07T01:45:25.680Z,80.03
2023-03-07T01:47:58.009Z,80.02
2023-03-07T01:50:38.806Z,80.26
2023-03-07T01:53:08.448Z,80.25
2023-03-07T01:55:36.094Z,80.02
2023-03-07T01:58:13.147Z,79.88
2023-03-07T02:00:40.640Z,79.94
2023-03-07T02:03:27.374Z,79.94
2023-03-07T02:05:58.987Z,79.97
2023-03-07T02:08:34.195Z,80.03
2023-03-07T02:11:15.858Z,79.95
2023-03-07T02:14:11.336Z,80.08
2023-03-07T02:16:38.462Z,80.07
2023-03-07T02:19:21.824Z,79.94
2023-03-07T02:22:06.808Z,79.79
2023-03-07T02:24:40.799Z,79.82
2023-03-07T02:27:07.483Z,79.84
2023-03-07T02:29:37.320Z,79.83
2023-03-07T02:32:04.159Z,79.92
2023-03-07T02:34:54.160Z,79.90
2023-03-07T02:37:25.060Z,79.90
2023-03-07T02:39:52.781Z,80.02
2023-03-07T02:42:28.178Z,80.05
2023-03-07T02:45:08.121Z,79.96
2023-03-07T02:47:54.678Z,79.95
2023-03-07T02:50:31.582Z,79.83
2023-03-07T02:52:58.476Z,79.91
2023-03-07T02:55:38.573Z,80.13
2023-03-07T02:58:05.287Z,80.04
2023-03-07T03:00:32.296Z,79.97
2023-03-07T03:03:02.218Z,80.21
2023-03-07T03:05:33.858Z,80.08
2023-03-07T03:08:03.097Z,80.46
2023-03-07T03:10:29.985Z,80.42
2023-03-07T03:12:57.729Z,80.40
2023-03-07T03:15:26.741Z,80.42
2023-03-07T03:17:54.006Z,80.09
2023-03-07T03:20:23.109Z,79.90
2023-03-07T03:22:52.286Z,79.83
2023-03-07T03:25:21.363Z,79.86
2023-03-07T03:27:48.431Z,80.14
2023-03-07T03:30:15.258Z,80.01
2023-03-07T03:32:42.208Z,80.02
2023-03-07T03:35:10.065Z,80.08
2023-03-07T03:37:40.209Z,80.00
2023-03-07T03:40:07.438Z,79.97
2023-03-07T03:42:34.130Z,80.08
2023-03-07T03:45:01.251Z,80.12
2023-03-07T03:47:29.105Z,80.00
2023-03-07T03:49:55.702Z,80.18
2023-03-07T03:52:24.879Z,80.23
2023-03-07T03:54:54.346Z,80.19
2023-03-07T03:57:20.991Z,80.21
2023-03-07T03:59:47.501Z,80.17
2023-03-07T04:02:15.586Z,80.14
2023-03-07T04:04:47.473Z,80.93
2023-03-07T04:07:14.069Z,80.68
2023-03-07T04:09:40.569Z,80.50
2023-03-07T04:12:09.907Z,80.67
2023-03-07T04:14:38.507Z,80.39
2023-03-07T04:17:05.427Z,80.23
2023-03-07T04:19:32.179Z,80.47
2023-03-07T04:22:04.266Z,81.02
2023-03-07T04:24:30.935Z,80.77
2023-03-07T04:27:00.207Z,80.85
2023-03-07T04:29:27.079Z,80.57
2023-03-07T04:32:00.373Z,80.61
2023-03-07T04:34:27.199Z,80.73
2023-03-07T04:36:53.628Z,80.59
2023-03-07T04:39:20.236Z,80.58
2023-03-07T04:41:46.837Z,80.34
2023-03-07T04:44:21.998Z,80.39
2023-03-07T04:46:48.536Z,80.38
2023-03-07T04:49:17.903Z,80.43
2023-03-07T04:51:44.379Z,80.42
2023-03-07T04:54:13.017Z,80.52
2023-03-07T04:56:40.013Z,80.41
2023-03-07T04:59:10.158Z,80.27
2023-03-07T05:01:36.806Z,80.26
2023-03-07T05:04:03.513Z,80.30
2023-03-07T05:06:30.274Z,80.33
2023-03-07T05:08:57.375Z,80.60
2023-03-07T05:11:23.922Z,80.58
2023-03-07T05:13:53.057Z,80.90
2023-03-07T05:16:21.818Z,80.62
2023-03-07T05:18:53.986Z,80.51
2023-03-07T05:21:20.498Z,80.79
2023-03-07T05:23:47.023Z,80.72
2023-03-07T05:26:13.696Z,80.53
2023-03-07T05:28:40.726Z,80.67
2023-03-07T05:31:07.694Z,80.63
2023-03-07T05:33:38.422Z,80.69
2023-03-07T05:36:07.701Z,80.56
2023-03-07T05:38:35.213Z,80.54
2023-03-07T05:41:01.645Z,80.78
2023-03-07T05:43:28.530Z,80.91
2023-03-07T05:45:58.437Z,80.63
2023-03-07T05:48:25.144Z,80.56
2023-03-07T05:50:57.742Z,80.74
2023-03-07T05:53:24.332Z,80.62
2023-03-07T05:56:01.319Z,80.59
2023-03-07T05:58:28.857Z,80.66
2023-03-07T06:00:55.583Z,80.68
2023-03-07T06:03:25.329Z,80.68
2023-03-07T06:05:52.465Z,80.76
2023-03-07T06:08:21.200Z,80.93
2023-03-07T06:10:51.627Z,81.03
2023-03-07T06:13:22.456Z,81.05
2023-03-07T06:15:49.722Z,81.20
2023-03-07T06:18:17.295Z,80.87
2023-03-07T06:20:44.111Z,80.94
2023-03-07T06:23:15.632Z,80.85
2023-03-07T06:25:45.529Z,80.77
2023-03-07T06:28:21.531Z,80.75
2023-03-07T06:30:48.227Z,80.82
2023-03-07T06:33:33.800Z,80.82
2023-03-07T06:36:04.790Z,80.91
2023-03-07T07:49:45.218Z,75.56
2023-03-07T07:52:11.965Z,75.58
2023-03-07T07:54:39.797Z,75.51
2023-03-07T07:57:07.320Z,74.99
2023-03-07T07:59:33.988Z,74.36
2023-03-07T08:02:03.826Z,74.02
2023-03-07T08:04:31.055Z,72.99
2023-03-07T08:06:57.844Z,73.52
2023-03-07T08:09:24.498Z,73.28
2023-03-07T08:11:51.166Z,73.30
2023-03-07T08:14:17.827Z,71.66
2023-03-07T08:16:47.318Z,70.72
2023-03-07T08:19:17.160Z,71.62
2023-03-07T08:21:47.145Z,71.17
2023-03-07T08:24:17.426Z,70.29
2023-03-07T08:26:44.436Z,70.71
2023-03-07T08:29:16.492Z,70.63
2023-03-07T08:31:46.957Z,71.31
2023-03-07T08:34:16.881Z,71.69
2023-03-07T08:36:43.814Z,71.23
2023-03-07T08:39:13.853Z,70.62
2023-03-07T08:41:46.080Z,70.67
2023-03-07T08:44:23.078Z,70.79
2023-03-07T08:46:49.918Z,68.18
2023-03-07T08:49:16.494Z,69.47
2023-03-07T08:51:43.150Z,69.44
2023-03-07T08:54:09.797Z,67.98
2023-03-07T08:56:36.192Z,68.88
2023-03-07T08:59:07.558Z,67.74
2023-03-07T09:01:34.058Z,65.69
2023-03-07T09:04:00.576Z,67.17
2023-03-07T09:06:27.652Z,65.93
2023-03-07T09:08:58.239Z,63.83
2023-03-07T09:11:24.730Z,63.80
2023-03-07T09:13:53.229Z,63.17
2023-03-07T09:16:20.964Z,64.34
2023-03-07T09:18:47.540Z,65.52
2023-03-07T09:21:14.078Z,64.81
2023-03-07T09:23:42.139Z,65.13
2023-03-07T09:26:09.974Z,65.68
2023-03-07T09:28:36.617Z,66.01
2023-03-07T09:31:07.536Z,64.56
2023-03-07T09:33:36.360Z,64.87
2023-03-07T09:36:10.227Z,65.24
2023-03-07T09:38:37.662Z,63.66
2023-03-07T09:41:16.039Z,64.55
2023-03-07T09:44:12.081Z,63.29
2023-03-07T09:47:20.013Z,61.74
2023-03-07T09:49:54.657Z,62.15
2023-03-07T09:52:26.602Z,63.68
2023-03-07T09:54:57.199Z,63.06
2023-03-07T09:57:30.744Z,63.23
2023-03-07T10:00:04.131Z,61.35
2023-03-07T10:03:13.832Z,60.84
2023-03-07T10:05:55.419Z,60.78
2023-03-07T10:08:27.271Z,61.29
2023-03-07T10:11:00.290Z,60.86
2023-03-07T10:13:30.043Z,60.46
2023-03-07T10:16:20.267Z,60.01
2023-03-07T10:18:52.838Z,61.51
2023-03-07T10:21:19.762Z,62.42
2023-03-07T10:23:46.289Z,61.81
2023-03-07T10:26:19.084Z,62.77
2023-03-07T10:28:45.974Z,63.13
2023-03-07T10:31:35.901Z,63.64
2023-03-07T10:34:26.940Z,62.75
2023-03-07T10:37:09.182Z,61.31
2023-03-07T10:39:56.931Z,62.74
2023-03-07T10:42:33.003Z,61.65
2023-03-07T10:45:12.600Z,60.79
2023-03-07T10:47:52.362Z,59.17
2023-03-07T10:50:36.090Z,58.78
2023-03-07T10:53:04.121Z,57.48
2023-03-07T10:55:33.523Z,57.78
2023-03-07T10:58:20.851Z,57.48
2023-03-07T11:01:14.388Z,56.34
2023-03-07T11:03:55.326Z,55.88
2023-03-07T11:06:27.969Z,55.16
2023-03-07T11:08:54.696Z,56.78
2023-03-07T11:11:23.646Z,57.98
2023-03-07T11:14:18.773Z,57.07
2023-03-07T11:16:59.629Z,54.97
2023-03-07T11:19:29.489Z,57.46
2023-03-07T11:21:57.141Z,55.38
2023-03-07T11:24:27.985Z,54.10
2023-03-07T11:26:55.858Z,52.93
2023-03-07T11:29:22.394Z,54.30
2023-03-07T11:31:57.838Z,53.79
2023-03-07T11:34:47.531Z,53.28
2023-03-07T11:37:23.752Z,53.37
2023-03-07T11:40:02.645Z,53.77
2023-03-07T11:42:38.560Z,52.94
2023-03-07T11:45:05.152Z,52.85
2023-03-07T11:47:34.778Z,52.10
2023-03-07T11:50:01.612Z,52.24
2023-03-07T11:52:54.315Z,52.52
2023-03-07T11:55:35.541Z,52.35
2023-03-07T11:58:25.651Z,53.83
2023-03-07T12:00:52.133Z,53.34
2023-03-07T12:03:34.215Z,53.54
2023-03-07T12:06:00.701Z,53.68
2023-03-07T12:08:36.923Z,53.07
2023-03-07T12:11:22.255Z,53.55
2023-03-07T12:13:49.160Z,53.85
2023-03-07T12:16:24.526Z,54.21
2023-03-07T12:19:07.281Z,54.58
2023-03-07T12:21:34.421Z,54.78
2023-03-07T12:24:03.379Z,52.70
2023-03-07T12:26:56.636Z,52.89
2023-03-07T12:29:23.149Z,51.51
2023-03-07T12:31:52.489Z,51.94
2023-03-07T12:34:31.910Z,51.09
2023-03-07T12:37:18.573Z,51.07
2023-03-07T12:39:49.977Z,52.16
2023-03-07T12:42:35.514Z,52.65
2023-03-07T12:45:19.990Z,52.45
2023-03-07T12:47:49.784Z,51.37
2023-03-07T12:50:16.139Z,51.80
2023-03-07T12:52:47.667Z,51.38
2023-03-07T12:55:26.266Z,50.73
2023-03-07T12:57:57.316Z,51.05
2023-03-07T13:00:24.163Z,50.70
2023-03-07T13:03:01.415Z,50.45
2023-03-07T13:05:28.886Z,50.83
2023-03-07T13:07:56.337Z,51.81
2023-03-07T13:10:24.329Z,52.20
2023-03-07T13:12:50.990Z,52.17
2023-03-07T13:15:20.491Z,52.67
2023-03-07T13:17:58.872Z,52.82
2023-03-07T13:20:28.592Z,52.55
2023-03-07T13:22:56.382Z,53.22
2023-03-07T13:25:24.277Z,52.76
2023-03-07T13:27:52.996Z,52.70
2023-03-07T13:30:22.671Z,52.87
2023-03-07T13:32:52.195Z,51.40
2023-03-07T13:35:48.246Z,51.87
2023-03-07T13:38:23.104Z,51.60
2023-03-07T13:40:53.801Z,52.10
2023-03-07T13:43:38.834Z,51.96
2023-03-07T13:46:25.342Z,51.50
2023-03-07T13:48:51.896Z,52.48
2023-03-07T13:51:18.518Z,52.88
2023-03-07T13:53:46.123Z,52.79
2023-03-07T13:56:34.375Z,53.29
2023-03-07T13:59:19.413Z,52.65
2023-03-07T14:01:55.358Z,52.22
2023-03-07T14:04:38.358Z,52.27
2023-03-07T14:07:13.483Z,52.24
2023-03-07T14:09:41.653Z,52.68
2023-03-07T14:12:24.777Z,53.19
2023-03-07T14:14:54.296Z,52.69
2023-03-07T14:17:48.747Z,51.64
2023-03-07T14:20:28.700Z,52.15
2023-03-07T14:23:27.519Z,52.77
2023-03-07T14:26:17.376Z,52.13
2023-03-07T14:28:58.190Z,53.29
2023-03-07T14:31:47.365Z,53.15
2023-03-07T14:34:25.442Z,53.48
2023-03-07T14:37:21.439Z,53.15
2023-03-07T14:40:07.708Z,53.53
2023-03-07T14:43:23.585Z,52.94
2023-03-07T14:46:19.527Z,52.61
2023-03-07T14:49:35.541Z,52.81
2023-03-07T14:52:30.415Z,53.34
2023-03-07T14:55:32.368Z,53.20
2023-03-07T14:58:27.578Z,53.40
2023-03-07T15:00:58.443Z,52.94
2023-03-07T15:03:27.895Z,53.67
2023-03-07T15:05:56.101Z,53.79
2023-03-07T15:08:32.536Z,54.15
2023-03-07T15:11:05.651Z,54.64
2023-03-07T15:13:48.539Z,54.61
2023-03-07T15:16:27.058Z,55.00
2023-03-07T15:19:03.321Z,55.23
2023-03-07T15:21:39.829Z,55.44
2023-03-07T15:24:15.924Z,55.08
2023-03-07T15:26:51.256Z,55.28
2023-03-07T15:29:25.177Z,55.63
2023-03-07T15:32:24.500Z,55.71
2023-03-07T15:34:58.467Z,56.06
2023-03-07T15:37:26.837Z,56.24
2023-03-07T15:40:08.691Z,56.28
2023-03-07T15:42:52.666Z,56.41
2023-03-07T15:45:28.577Z,56.69
2023-03-07T15:47:55.921Z,56.83
2023-03-07T15:50:23.526Z,56.92
2023-03-07T15:52:55.227Z,57.30
2023-03-07T15:55:24.970Z,57.68
2023-03-07T15:58:11.662Z,57.97
2023-03-07T16:00:44.626Z,58.20
2023-03-07T16:03:30.022Z,58.27
2023-03-07T16:05:58.026Z,58.37
2023-03-07T16:08:24.529Z,58.51
2023-03-07T16:10:57.958Z,58.77
2023-03-07T16:13:26.842Z,58.84
2023-03-07T16:16:14.756Z,58.92
2023-03-07T16:18:42.092Z,59.59
2023-03-07T16:21:12.020Z,59.50
2023-03-07T16:23:38.451Z,60.07
2023-03-07T16:26:05.611Z,60.69
2023-03-07T16:28:33.104Z,60.90
2023-03-07T16:30:59.736Z,61.82
2023-03-07T16:33:26.375Z,62.00
2023-03-07T16:35:52.736Z,61.96
2023-03-07T16:38:19.225Z,62.15
2023-03-07T16:40:46.894Z,62.80
2023-03-07T16:43:36.508Z,62.86
2023-03-07T16:46:09.854Z,62.63
2023-03-07T16:48:36.418Z,62.47
2023-03-07T16:51:03.482Z,62.48
2023-03-07T16:53:29.955Z,62.59
2023-03-07T16:55:57.893Z,62.58
2023-03-07T16:58:26.182Z,62.92
2023-03-07T17:00:58.595Z,62.65
2023-03-07T17:03:25.784Z,62.64
2023-03-07T17:05:52.232Z,62.59
2023-03-07T17:08:21.393Z,62.89
2023-03-07T17:10:47.931Z,62.77
2023-03-07T17:13:16.289Z,62.90
2023-03-07T17:15:43.296Z,63.15
2023-03-07T17:18:09.909Z,62.99
2023-03-07T17:20:36.280Z,63.03
2023-03-07T17:23:03.115Z,63.08
2023-03-07T17:25:29.743Z,63.17
2023-03-07T17:28:04.567Z,63.24
2023-03-07T17:30:31.314Z,63.84
2023-03-07T17:32:58.187Z,64.37
2023-03-07T17:35:25.866Z,63.83
2023-03-07T17:37:52.498Z,63.88
2023-03-07T17:40:22.093Z,63.98
2023-03-07T17:42:49.371Z,64.59
2023-03-07T17:45:17.039Z,65.18
2023-03-07T17:47:45.164Z,64.84
2023-03-07T17:50:14.693Z,64.55
2023-03-07T17:52:50.805Z,65.38
2023-03-07T17:55:28.616Z,65.26
2023-03-07T17:57:55.500Z,65.59
2023-03-07T18:00:22.980Z,65.79
2023-03-07T18:02:51.981Z,65.83
2023-03-07T18:05:19.144Z,66.14
2023-03-07T18:07:45.877Z,66.23
2023-03-07T18:10:12.320Z,66.19
2023-03-07T18:12:39.482Z,66.33
2023-03-07T18:15:11.130Z,66.76
2023-03-07T18:17:49.437Z,67.19
2023-03-07T18:20:20.645Z,67.34
2023-03-07T18:22:50.692Z,67.44
2023-03-07T18:25:17.600Z,67.63
2023-03-07T18:27:44.118Z,67.39
2023-03-07T18:30:10.997Z,67.42
2023-03-07T18:32:37.602Z,67.46
2023-03-07T18:35:04.236Z,67.78
2023-03-07T18:37:30.837Z,67.54
2023-03-07T18:39:57.261Z,67.46
2023-03-07T18:42:23.703Z,67.76
2023-03-07T18:44:51.057Z,67.64
2023-03-07T18:47:17.514Z,67.69
2023-03-07T18:49:43.921Z,67.85
2023-03-07T18:52:10.617Z,68.23
2023-03-07T18:54:37.113Z,68.93
2023-03-07T18:57:03.534Z,68.75
2023-03-07T18:59:30.141Z,68.56
2023-03-07T19:01:56.593Z,68.65
2023-03-07T19:04:23.080Z,68.62
2023-03-07T19:06:49.798Z,68.66
2023-03-07T19:09:17.497Z,69.00
2023-03-07T19:11:44.289Z,69.49
2023-03-07T19:14:11.350Z,69.13
2023-03-07T19:16:37.949Z,68.94
2023-03-07T19:19:04.535Z,68.93
2023-03-07T19:21:31.656Z,69.37
2023-03-07T19:23:59.662Z,69.08
2023-03-07T19:26:26.572Z,69.25
2023-03-07T19:28:54.106Z,69.47
2023-03-07T19:31:23.681Z,69.35
2023-03-07T19:33:51.023Z,69.95
2023-03-07T19:36:19.848Z,69.52
2023-03-07T19:38:47.721Z,69.74
2023-03-07T19:41:17.255Z,69.84
2023-03-07T19:43:44.210Z,69.76
2023-03-07T19:46:11.639Z,69.79
2023-03-07T19:48:40.901Z,69.93
2023-03-07T19:51:26.137Z,69.86
2023-03-07T19:53:55.982Z,69.69
2023-03-07T19:56:25.907Z,69.88
2023-03-07T19:58:52.836Z,70.08
2023-03-07T20:01:20.522Z,70.06
2023-03-07T20:03:47.679Z,70.21
2023-03-07T20:06:18.077Z,70.60
2023-03-07T20:08:53.054Z,70.37
2023-03-07T20:11:27.181Z,70.66
2023-03-07T20:13:55.399Z,70.55
2023-03-07T20:16:23.857Z,70.99
2023-03-07T20:18:52.209Z,70.72
2023-03-07T20:21:19.616Z,70.74
2023-03-07T20:23:46.822Z,70.77
2023-03-07T20:26:15.209Z,70.97
2023-03-07T20:28:44.808Z,70.99
2023-03-07T20:31:11.412Z,71.19
2023-03-07T20:33:41.389Z,71.02
2023-03-07T20:36:09.694Z,71.22
2023-03-07T20:38:36.869Z,71.17
2023-03-07T20:41:05.122Z,71.26
2023-03-07T20:43:32.160Z,71.16
2023-03-07T20:46:03.326Z,71.24
2023-03-07T20:48:33.172Z,71.14
2023-03-07T20:51:03.935Z,71.38
2023-03-07T20:53:30.889Z,71.13
2023-03-07T20:56:05.039Z,70.97
2023-03-07T20:58:32.178Z,71.08
2023-03-07T21:00:58.906Z,71.35
2023-03-07T21:03:25.912Z,71.12
2023-03-07T21:05:53.209Z,71.09
2023-03-07T21:08:19.719Z,71.09
2023-03-07T21:10:46.952Z,71.13
2023-03-07T21:13:13.454Z,71.19
2023-03-07T21:15:39.894Z,71.10
2023-03-07T21:18:06.501Z,71.23
2023-03-07T21:20:33.119Z,71.12
2023-03-07T21:22:59.466Z,71.19
2023-03-07T21:25:27.083Z,71.38
2023-03-07T21:27:53.516Z,71.58
2023-03-07T21:30:20.202Z,71.52
2023-03-07T21:32:49.715Z,71.33
2023-03-07T21:35:22.655Z,71.64
2023-03-07T21:37:52.560Z,71.40
2023-03-07T21:40:19.269Z,71.34
2023-03-07T21:42:45.829Z,71.39
2023-03-07T21:45:14.791Z,71.48
2023-03-07T21:47:45.645Z,71.46
2023-03-07T21:50:14.318Z,71.59
2023-03-07T21:52:40.903Z,71.42
2023-03-07T21:55:08.117Z,71.66
2023-03-07T21:57:34.778Z,71.70
2023-03-07T22:00:01.386Z,71.85
2023-03-07T22:02:30.687Z,71.59
2023-03-07T22:04:59.856Z,71.53
2023-03-07T22:07:26.305Z,71.52
2023-03-07T22:09:55.803Z,71.53
2023-03-07T22:12:22.439Z,71.40
2023-03-07T22:14:48.970Z,71.42
2023-03-07T22:17:15.561Z,71.41
2023-03-07T22:19:47.436Z,71.50
2023-03-07T22:22:14.149Z,71.44
2023-03-07T22:24:43.923Z,71.42
2023-03-07T22:27:10.645Z,71.57
2023-03-07T22:29:37.067Z,71.61
2023-03-07T22:32:09.182Z,71.43
2023-03-07T22:34:38.786Z,71.55
2023-03-07T22:37:08.456Z,71.52
2023-03-07T22:39:46.093Z,71.51
2023-03-07T22:42:12.610Z,71.77
2023-03-07T22:44:39.230Z,71.54
2023-03-07T22:47:08.489Z,71.52
2023-03-07T22:49:35.100Z,71.69
2023-03-07T22:52:02.750Z,71.63
2023-03-07T22:54:31.744Z,72.12
2023-03-07T22:57:09.017Z,71.89
2023-03-07T22:59:43.181Z,71.71
2023-03-07T23:02:09.610Z,71.82
2023-03-07T23:04:38.728Z,71.82
2023-03-07T23:07:07.683Z,72.01
2023-03-07T23:09:36.694Z,72.07
2023-03-07T23:12:03.181Z,71.99
2023-03-07T23:14:29.579Z,71.98
2023-03-07T23:16:56.273Z,72.10
2023-03-07T23:19:22.794Z,72.14
2023-03-07T23:21:49.293Z,72.38
2023-03-07T23:24:15.715Z,72.29
2023-03-07T23:26:42.114Z,72.52
2023-03-07T23:29:08.498Z,72.46
2023-03-07T23:31:36.586Z,72.52
2023-03-07T23:34:04.789Z,72.45
2023-03-07T23:36:31.287Z,72.51
2023-03-07T23:38:58.604Z,72.58
2023-03-07T23:41:25.418Z,72.67
2023-03-07T23:43:53.067Z,72.56
2023-03-07T23:46:19.661Z,73.00
2023-03-07T23:48:46.103Z,73.14
2023-03-07T23:51:12.728Z,74.54
2023-03-07T23:53:39.219Z,73.79
2023-03-07T23:56:06.411Z,73.22
2023-03-07T23:58:36.348Z,73.68
